Emilee Alexis — WDH9019 — position and weather

sailwx.info

Track history (hours):
 
Tides and Currents Weather Stations Pressure Air Temp Water Temp Dewpoint Dewpoint Depression Visibility Wind Speed Wind Dir Waves Ship Positions

Emilee Alexis

Owner: Aycock Towing Co., Inc., New Iberia, LA. More information available from US FCC via Universal Licensing System and Coast Guard Vessel Documentation Center.

Last reported at 2017-Nov-17 20:13 UTC. Time now 2017-Nov-21 19:12 UTC.
Position N 29°49' W 092°02'.

Length 22 m.

Type: Tug. MMSI: 366967790.

Date/timePositionNaut miles runAvg speedWind from/ knotsBaromVisibWave heightAir tempDewpointWater temp
2017-Nov-17 20:13N 29°49' W 092°02'1 4.9
2017-Nov-17 20:00N 29°49' W 092°03'3 5.0
2017-Nov-17 19:30N 29°48' W 092°05'3 5.1
2017-Nov-17 19:00N 29°47' W 092°08'3 5.1
2017-Nov-17 18:30N 29°47' W 092°11'3 5.4
2017-Nov-17 18:00N 29°48' W 092°14'2 5.0
2017-Nov-17 17:31N 29°49' W 092°17'2 4.8
2017-Nov-17 17:00N 29°50' W 092°19'2 5.0
2017-Nov-17 16:30N 29°51' W 092°21'3 4.7
2017-Nov-17 15:56N 29°53' W 092°23'3 5.0
2017-Nov-17 15:26N 29°53' W 092°26'19 1.4
2017-Nov-17 02:28N 30°02' W 092°46'5 4.6
2017-Nov-17 01:24N 30°04' W 092°41'21 0.9
2017-Nov-16 01:51N 29°51' W 092°22'2 6.1
2017-Nov-16 01:30N 29°50' W 092°19'3 5.9
2017-Nov-16 01:00N 29°49' W 092°17'3 6.3
2017-Nov-16 00:30N 29°47' W 092°13'2 3.4
2017-Nov-16 00:00N 29°47' W 092°11'3 5.9
2017-Nov-15 23:30N 29°47' W 092°08'3 5.7
2017-Nov-15 22:59N 29°48' W 092°05'3 6.0
2017-Nov-15 22:30N 29°49' W 092°02'3 6.4
2017-Nov-15 22:00N 29°50' W 091°58'  
Track history (hours):
 
Tides and Currents Weather Stations Pressure Air Temp Water Temp Dewpoint Dewpoint Depression Visibility Wind Speed Wind Dir Waves Ship Positions

Emilee Alexis

Owner: Aycock Towing Co., Inc., New Iberia, LA. More information available from US FCC via Universal Licensing System and Coast Guard Vessel Documentation Center.

Last reported at 2017-Nov-17 20:13 UTC. Time now 2017-Nov-21 19:12 UTC.
Position N 29°49' W 092°02'.

Length 22 m.

Type: Tug. MMSI: 366967790.

Date/timePositionNaut miles runAvg speedWind from/ knotsBaromVisibWave heightAir tempDewpointWater temp
2017-Nov-17 20:13N 29°49' W 092°02'1 4.9
2017-Nov-17 20:00N 29°49' W 092°03'3 5.0
2017-Nov-17 19:30N 29°48' W 092°05'3 5.1
2017-Nov-17 19:00N 29°47' W 092°08'3 5.1
2017-Nov-17 18:30N 29°47' W 092°11'3 5.4
2017-Nov-17 18:00N 29°48' W 092°14'2 5.0
2017-Nov-17 17:31N 29°49' W 092°17'2 4.8
2017-Nov-17 17:00N 29°50' W 092°19'2 5.0
2017-Nov-17 16:30N 29°51' W 092°21'3 4.7
2017-Nov-17 15:56N 29°53' W 092°23'3 5.0
2017-Nov-17 15:26N 29°53' W 092°26'19 1.4
2017-Nov-17 02:28N 30°02' W 092°46'5 4.6
2017-Nov-17 01:24N 30°04' W 092°41'21 0.9
2017-Nov-16 01:51N 29°51' W 092°22'2 6.1
2017-Nov-16 01:30N 29°50' W 092°19'3 5.9
2017-Nov-16 01:00N 29°49' W 092°17'3 6.3
2017-Nov-16 00:30N 29°47' W 092°13'2 3.4
2017-Nov-16 00:00N 29°47' W 092°11'3 5.9
2017-Nov-15 23:30N 29°47' W 092°08'3 5.7
2017-Nov-15 22:59N 29°48' W 092°05'3 6.0
2017-Nov-15 22:30N 29°49' W 092°02'3 6.4
2017-Nov-15 22:00N 29°50' W 091°58'  

Dump ship's entire track history